sensor_id;sensor_type;location;lat;lon;timestamp;temperature;humidity
29501;DHT22;16450;50.288;10.966;2023-03-14T00:02:52;9.20;99.90
29501;DHT22;16450;50.288;10.966;2023-03-14T00:05:54;9.20;99.90
29501;DHT22;16450;50.288;10.966;2023-03-14T00:08:56;9.10;99.90
29501;DHT22;16450;50.288;10.966;2023-03-14T00:11:58;9.10;99.90
29501;DHT22;16450;50.288;10.966;2023-03-14T00:14:59;9.10;99.90
29501;DHT22;16450;50.288;10.966;2023-03-14T00:18:01;9.10;99.90
29501;DHT22;16450;50.288;10.966;2023-03-14T00:21:05;9.00;99.90
29501;DHT22;16450;50.288;10.966;2023-03-14T00:24:08;9.00;99.90
29501;DHT22;16450;50.288;10.966;2023-03-14T00:27:10;9.00;99.90
29501;DHT22;16450;50.288;10.966;2023-03-14T00:30:12;9.00;99.90
29501;DHT22;16450;50.288;10.966;2023-03-14T00:33:14;9.00;99.90
29501;DHT22;16450;50.288;10.966;2023-03-14T00:36:17;9.00;99.90
29501;DHT22;16450;50.288;10.966;2023-03-14T00:39:18;9.00;99.90
29501;DHT22;16450;50.288;10.966;2023-03-14T00:42:20;9.00;99.90
29501;DHT22;16450;50.288;10.966;2023-03-14T00:45:22;8.90;99.90
29501;DHT22;16450;50.288;10.966;2023-03-14T00:48:24;8.90;99.90
29501;DHT22;16450;50.288;10.966;2023-03-14T00:51:25;8.90;99.90
29501;DHT22;16450;50.288;10.966;2023-03-14T00:54:27;8.90;99.90
29501;DHT22;16450;50.288;10.966;2023-03-14T00:57:29;8.90;99.90
29501;DHT22;16450;50.288;10.966;2023-03-14T01:00:31;8.90;99.90
29501;DHT22;16450;50.288;10.966;2023-03-14T01:03:33;8.90;99.90
29501;DHT22;16450;50.288;10.966;2023-03-14T01:06:35;8.90;99.90
29501;DHT22;16450;50.288;10.966;2023-03-14T01:09:37;8.90;99.90
29501;DHT22;16450;50.288;10.966;2023-03-14T01:12:39;8.90;99.90
29501;DHT22;16450;50.288;10.966;2023-03-14T01:15:40;8.90;99.90
29501;DHT22;16450;50.288;10.966;2023-03-14T01:18:44;8.90;99.90
29501;DHT22;16450;50.288;10.966;2023-03-14T01:21:46;8.90;99.90
29501;DHT22;16450;50.288;10.966;2023-03-14T01:24:48;8.90;99.90
29501;DHT22;16450;50.288;10.966;2023-03-14T01:27:50;8.90;99.90
29501;DHT22;16450;50.288;10.966;2023-03-14T01:30:52;8.90;99.90
29501;DHT22;16450;50.288;10.966;2023-03-14T01:33:54;8.80;99.90
29501;DHT22;16450;50.288;10.966;2023-03-14T01:36:56;8.80;99.90
29501;DHT22;16450;50.288;10.966;2023-03-14T01:39:58;8.80;99.90
29501;DHT22;16450;50.288;10.966;2023-03-14T01:43:14;8.90;99.90
29501;DHT22;16450;50.288;10.966;2023-03-14T01:49:26;8.90;99.90
29501;DHT22;16450;50.288;10.966;2023-03-14T01:52:35;8.80;99.90
29501;DHT22;16450;50.288;10.966;2023-03-14T01:55:38;8.90;99.90
29501;DHT22;16450;50.288;10.966;2023-03-14T01:58:41;8.80;99.90
29501;DHT22;16450;50.288;10.966;2023-03-14T02:01:46;8.80;99.90
29501;DHT22;16450;50.288;10.966;2023-03-14T02:04:49;8.80;99.90
29501;DHT22;16450;50.288;10.966;2023-03-14T02:07:58;8.90;99.90
29501;DHT22;16450;50.288;10.966;2023-03-14T02:11:00;8.80;99.90
29501;DHT22;16450;50.288;10.966;2023-03-14T02:14:02;8.90;99.90
29501;DHT22;16450;50.288;10.966;2023-03-14T02:17:05;8.90;99.90
29501;DHT22;16450;50.288;10.966;2023-03-14T02:20:21;8.90;99.90
29501;DHT22;16450;50.288;10.966;2023-03-14T02:30:28;9.00;99.90
29501;DHT22;16450;50.288;10.966;2023-03-14T02:33:30;9.00;99.90
29501;DHT22;16450;50.288;10.966;2023-03-14T02:36:33;9.00;99.90
29501;DHT22;16450;50.288;10.966;2023-03-14T02:39:38;9.00;99.90
29501;DHT22;16450;50.288;10.966;2023-03-14T02:42:41;9.00;99.90
29501;DHT22;16450;50.288;10.966;2023-03-14T02:45:48;9.00;99.90
29501;DHT22;16450;50.288;10.966;2023-03-14T02:48:55;9.00;99.90
29501;DHT22;16450;50.288;10.966;2023-03-14T02:51:58;9.00;99.90
29501;DHT22;16450;50.288;10.966;2023-03-14T02:55:00;8.90;99.90
29501;DHT22;16450;50.288;10.966;2023-03-14T02:58:02;8.90;99.90
29501;DHT22;16450;50.288;10.966;2023-03-14T03:01:04;8.90;99.90
29501;DHT22;16450;50.288;10.966;2023-03-14T03:04:06;8.90;99.90
29501;DHT22;16450;50.288;10.966;2023-03-14T03:07:08;8.90;99.90
29501;DHT22;16450;50.288;10.966;2023-03-14T03:10:10;8.90;99.90
29501;DHT22;16450;50.288;10.966;2023-03-14T03:13:12;8.90;99.90
29501;DHT22;16450;50.288;10.966;2023-03-14T03:16:14;8.90;99.90
29501;DHT22;16450;50.288;10.966;2023-03-14T03:19:17;8.90;99.90
29501;DHT22;16450;50.288;10.966;2023-03-14T03:22:19;8.90;99.90
29501;DHT22;16450;50.288;10.966;2023-03-14T03:25:21;8.90;99.90
29501;DHT22;16450;50.288;10.966;2023-03-14T03:28:23;8.90;99.90
29501;DHT22;16450;50.288;10.966;2023-03-14T03:31:25;8.80;99.90
29501;DHT22;16450;50.288;10.966;2023-03-14T03:34:27;8.80;99.90
29501;DHT22;16450;50.288;10.966;2023-03-14T03:37:32;8.90;99.90
29501;DHT22;16450;50.288;10.966;2023-03-14T03:40:34;8.80;99.90
29501;DHT22;16450;50.288;10.966;2023-03-14T03:43:36;8.80;99.90
29501;DHT22;16450;50.288;10.966;2023-03-14T03:46:38;8.80;99.90
29501;DHT22;16450;50.288;10.966;2023-03-14T03:49:40;8.80;99.90
29501;DHT22;16450;50.288;10.966;2023-03-14T03:52:42;8.80;99.90
29501;DHT22;16450;50.288;10.966;2023-03-14T03:55:44;8.70;99.90
29501;DHT22;16450;50.288;10.966;2023-03-14T03:58:45;8.70;99.90
29501;DHT22;16450;50.288;10.966;2023-03-14T04:01:47;8.70;99.90
29501;DHT22;16450;50.288;10.966;2023-03-14T04:04:49;8.70;99.90
29501;DHT22;16450;50.288;10.966;2023-03-14T04:07:51;8.70;99.90
29501;DHT22;16450;50.288;10.966;2023-03-14T04:10:58;8.70;99.90
29501;DHT22;16450;50.288;10.966;2023-03-14T04:14:00;8.70;99.90
29501;DHT22;16450;50.288;10.966;2023-03-14T04:17:02;8.80;99.90
29501;DHT22;16450;50.288;10.966;2023-03-14T04:20:04;8.80;99.90
29501;DHT22;16450;50.288;10.966;2023-03-14T04:23:06;8.80;99.90
29501;DHT22;16450;50.288;10.966;2023-03-14T04:26:08;8.80;99.90
29501;DHT22;16450;50.288;10.966;2023-03-14T04:29:10;8.80;99.90
29501;DHT22;16450;50.288;10.966;2023-03-14T04:32:13;8.80;99.90
29501;DHT22;16450;50.288;10.966;2023-03-14T04:35:15;8.80;99.90
29501;DHT22;16450;50.288;10.966;2023-03-14T04:38:17;8.80;99.90
29501;DHT22;16450;50.288;10.966;2023-03-14T04:41:19;8.80;99.90
29501;DHT22;16450;50.288;10.966;2023-03-14T04:44:21;8.80;99.90
29501;DHT22;16450;50.288;10.966;2023-03-14T04:47:23;8.80;99.90
29501;DHT22;16450;50.288;10.966;2023-03-14T04:50:25;8.80;99.90
29501;DHT22;16450;50.288;10.966;2023-03-14T04:53:26;8.80;99.90
29501;DHT22;16450;50.288;10.966;2023-03-14T04:56:28;8.80;99.90
29501;DHT22;16450;50.288;10.966;2023-03-14T04:59:30;8.80;99.90
29501;DHT22;16450;50.288;10.966;2023-03-14T05:02:32;8.80;99.90
29501;DHT22;16450;50.288;10.966;2023-03-14T05:05:34;8.90;99.90
29501;DHT22;16450;50.288;10.966;2023-03-14T05:08:36;8.90;99.90
29501;DHT22;16450;50.288;10.966;2023-03-14T05:11:38;8.90;99.90
29501;DHT22;16450;50.288;10.966;2023-03-14T05:14:40;8.80;99.90
29501;DHT22;16450;50.288;10.966;2023-03-14T05:17:42;8.90;99.90
29501;DHT22;16450;50.288;10.966;2023-03-14T05:20:44;8.80;99.90
29501;DHT22;16450;50.288;10.966;2023-03-14T05:23:46;8.90;99.90
29501;DHT22;16450;50.288;10.966;2023-03-14T05:26:48;8.90;99.90
29501;DHT22;16450;50.288;10.966;2023-03-14T05:29:49;8.90;99.90
29501;DHT22;16450;50.288;10.966;2023-03-14T05:32:51;8.90;99.90
29501;DHT22;16450;50.288;10.966;2023-03-14T05:35:53;8.80;99.90
29501;DHT22;16450;50.288;10.966;2023-03-14T05:38:55;8.90;99.90
29501;DHT22;16450;50.288;10.966;2023-03-14T05:41:57;8.80;99.90
29501;DHT22;16450;50.288;10.966;2023-03-14T05:44:58;8.80;99.90
29501;DHT22;16450;50.288;10.966;2023-03-14T05:48:00;8.80;99.90
29501;DHT22;16450;50.288;10.966;2023-03-14T05:51:03;8.80;99.90
29501;DHT22;16450;50.288;10.966;2023-03-14T05:54:04;8.80;99.90
29501;DHT22;16450;50.288;10.966;2023-03-14T05:57:07;8.80;99.90
29501;DHT22;16450;50.288;10.966;2023-03-14T06:00:09;8.80;99.90
29501;DHT22;16450;50.288;10.966;2023-03-14T06:03:11;8.80;99.90
29501;DHT22;16450;50.288;10.966;2023-03-14T06:06:13;8.80;99.90
29501;DHT22;16450;50.288;10.966;2023-03-14T06:09:15;8.80;99.90
29501;DHT22;16450;50.288;10.966;2023-03-14T06:12:17;8.80;99.90
29501;DHT22;16450;50.288;10.966;2023-03-14T06:15:19;8.80;99.90
29501;DHT22;16450;50.288;10.966;2023-03-14T06:18:21;8.80;99.90
29501;DHT22;16450;50.288;10.966;2023-03-14T06:21:23;8.80;99.90
29501;DHT22;16450;50.288;10.966;2023-03-14T06:24:25;8.80;99.90
29501;DHT22;16450;50.288;10.966;2023-03-14T06:27:27;8.90;99.90
29501;DHT22;16450;50.288;10.966;2023-03-14T06:30:28;8.80;99.90
29501;DHT22;16450;50.288;10.966;2023-03-14T06:33:30;8.90;99.90
29501;DHT22;16450;50.288;10.966;2023-03-14T06:36:32;8.90;99.90
29501;DHT22;16450;50.288;10.966;2023-03-14T06:39:34;8.90;99.90
29501;DHT22;16450;50.288;10.966;2023-03-14T06:42:36;9.00;99.90
29501;DHT22;16450;50.288;10.966;2023-03-14T06:45:38;9.00;99.90
29501;DHT22;16450;50.288;10.966;2023-03-14T06:48:40;9.00;99.90
29501;DHT22;16450;50.288;10.966;2023-03-14T06:51:42;9.10;99.90
29501;DHT22;16450;50.288;10.966;2023-03-14T06:54:43;9.10;99.90
29501;DHT22;16450;50.288;10.966;2023-03-14T06:57:45;9.10;99.90
29501;DHT22;16450;50.288;10.966;2023-03-14T07:00:47;9.10;99.90
29501;DHT22;16450;50.288;10.966;2023-03-14T07:03:49;9.20;99.90
29501;DHT22;16450;50.288;10.966;2023-03-14T07:06:51;9.20;99.90
29501;DHT22;16450;50.288;10.966;2023-03-14T07:09:52;9.20;99.90
29501;DHT22;16450;50.288;10.966;2023-03-14T07:12:55;9.20;99.90
29501;DHT22;16450;50.288;10.966;2023-03-14T07:15:57;9.20;99.90
29501;DHT22;16450;50.288;10.966;2023-03-14T07:18:59;9.20;99.90
29501;DHT22;16450;50.288;10.966;2023-03-14T07:22:01;9.20;99.90
29501;DHT22;16450;50.288;10.966;2023-03-14T07:25:04;9.20;99.90
29501;DHT22;16450;50.288;10.966;2023-03-14T07:28:05;9.20;99.90
29501;DHT22;16450;50.288;10.966;2023-03-14T07:31:08;9.20;99.90
29501;DHT22;16450;50.288;10.966;2023-03-14T07:34:10;9.30;99.90
29501;DHT22;16450;50.288;10.966;2023-03-14T07:37:12;9.30;99.90
29501;DHT22;16450;50.288;10.966;2023-03-14T07:40:14;9.40;99.90
29501;DHT22;16450;50.288;10.966;2023-03-14T07:43:16;9.50;99.90
29501;DHT22;16450;50.288;10.966;2023-03-14T07:46:19;9.50;99.90
29501;DHT22;16450;50.288;10.966;2023-03-14T07:49:21;9.60;99.90
29501;DHT22;16450;50.288;10.966;2023-03-14T07:52:23;9.70;99.90
29501;DHT22;16450;50.288;10.966;2023-03-14T07:55:25;9.70;99.90
29501;DHT22;16450;50.288;10.966;2023-03-14T07:58:27;9.80;99.90
29501;DHT22;16450;50.288;10.966;2023-03-14T08:01:29;9.90;99.90
29501;DHT22;16450;50.288;10.966;2023-03-14T08:04:32;9.90;99.90
29501;DHT22;16450;50.288;10.966;2023-03-14T08:07:34;9.90;99.90
29501;DHT22;16450;50.288;10.966;2023-03-14T08:10:36;10.00;99.90
29501;DHT22;16450;50.288;10.966;2023-03-14T08:13:38;10.10;99.90
29501;DHT22;16450;50.288;10.966;2023-03-14T08:16:41;10.10;99.90
29501;DHT22;16450;50.288;10.966;2023-03-14T08:19:43;10.20;99.90
29501;DHT22;16450;50.288;10.966;2023-03-14T08:22:45;10.20;99.90
29501;DHT22;16450;50.288;10.966;2023-03-14T08:25:50;10.30;99.90
29501;DHT22;16450;50.288;10.966;2023-03-14T08:28:52;10.30;99.90
29501;DHT22;16450;50.288;10.966;2023-03-14T08:31:54;10.40;99.90
29501;DHT22;16450;50.288;10.966;2023-03-14T08:34:56;10.40;99.90
29501;DHT22;16450;50.288;10.966;2023-03-14T08:37:58;10.40;99.90
29501;DHT22;16450;50.288;10.966;2023-03-14T08:41:01;10.50;99.90
29501;DHT22;16450;50.288;10.966;2023-03-14T08:44:03;10.40;99.90
29501;DHT22;16450;50.288;10.966;2023-03-14T08:47:05;10.40;99.90
29501;DHT22;16450;50.288;10.966;2023-03-14T08:50:08;10.40;99.90
29501;DHT22;16450;50.288;10.966;2023-03-14T08:53:12;10.50;99.90
29501;DHT22;16450;50.288;10.966;2023-03-14T08:56:14;10.40;99.90
29501;DHT22;16450;50.288;10.966;2023-03-14T08:59:16;10.40;99.90
29501;DHT22;16450;50.288;10.966;2023-03-14T09:02:18;10.40;99.90
29501;DHT22;16450;50.288;10.966;2023-03-14T09:05:20;10.40;99.90
29501;DHT22;16450;50.288;10.966;2023-03-14T09:08:22;10.40;99.90
29501;DHT22;16450;50.288;10.966;2023-03-14T09:11:24;10.40;99.90
29501;DHT22;16450;50.288;10.966;2023-03-14T09:14:26;10.30;99.90
29501;DHT22;16450;50.288;10.966;2023-03-14T09:17:28;10.30;99.90
29501;DHT22;16450;50.288;10.966;2023-03-14T09:20:29;10.30;99.90
29501;DHT22;16450;50.288;10.966;2023-03-14T09:23:31;10.30;99.90
29501;DHT22;16450;50.288;10.966;2023-03-14T09:26:33;10.30;99.90
29501;DHT22;16450;50.288;10.966;2023-03-14T09:29:35;10.20;99.90
29501;DHT22;16450;50.288;10.966;2023-03-14T09:32:37;10.20;99.90
29501;DHT22;16450;50.288;10.966;2023-03-14T09:35:39;10.20;99.90
29501;DHT22;16450;50.288;10.966;2023-03-14T09:38:41;10.20;99.90
29501;DHT22;16450;50.288;10.966;2023-03-14T09:41:48;10.20;99.90
29501;DHT22;16450;50.288;10.966;2023-03-14T09:44:53;10.20;99.90
29501;DHT22;16450;50.288;10.966;2023-03-14T09:47:57;10.20;99.90
29501;DHT22;16450;50.288;10.966;2023-03-14T09:51:05;10.30;99.90
29501;DHT22;16450;50.288;10.966;2023-03-14T09:54:27;10.40;99.90
29501;DHT22;16450;50.288;10.966;2023-03-14T09:57:33;10.40;99.90
29501;DHT22;16450;50.288;10.966;2023-03-14T10:00:37;10.50;99.90
29501;DHT22;16450;50.288;10.966;2023-03-14T10:03:39;10.50;99.90
29501;DHT22;16450;50.288;10.966;2023-03-14T10:06:43;10.50;99.90
29501;DHT22;16450;50.288;10.966;2023-03-14T10:09:48;10.50;99.90
29501;DHT22;16450;50.288;10.966;2023-03-14T10:12:59;10.50;99.90
29501;DHT22;16450;50.288;10.966;2023-03-14T10:16:04;10.50;99.90
29501;DHT22;16450;50.288;10.966;2023-03-14T10:19:14;10.50;99.90
29501;DHT22;16450;50.288;10.966;2023-03-14T10:22:17;10.60;99.90
29501;DHT22;16450;50.288;10.966;2023-03-14T10:25:33;10.60;99.90
29501;DHT22;16450;50.288;10.966;2023-03-14T10:28:43;10.60;99.90
29501;DHT22;16450;50.288;10.966;2023-03-14T10:31:50;10.70;99.90
29501;DHT22;16450;50.288;10.966;2023-03-14T10:35:18;10.80;99.90
29501;DHT22;16450;50.288;10.966;2023-03-14T10:38:23;10.90;99.90
29501;DHT22;16450;50.288;10.966;2023-03-14T10:41:27;11.00;99.90
29501;DHT22;16450;50.288;10.966;2023-03-14T10:44:32;11.10;99.90
29501;DHT22;16450;50.288;10.966;2023-03-14T10:47:35;11.20;99.90
29501;DHT22;16450;50.288;10.966;2023-03-14T10:50:37;11.20;99.90
29501;DHT22;16450;50.288;10.966;2023-03-14T10:57:04;11.20;99.90
29501;DHT22;16450;50.288;10.966;2023-03-14T11:00:14;11.20;99.90
29501;DHT22;16450;50.288;10.966;2023-03-14T11:03:19;11.20;99.90
29501;DHT22;16450;50.288;10.966;2023-03-14T11:13:26;11.20;99.90
29501;DHT22;16450;50.288;10.966;2023-03-14T11:16:38;11.20;99.90
29501;DHT22;16450;50.288;10.966;2023-03-14T11:22:56;11.30;99.90
29501;DHT22;16450;50.288;10.966;2023-03-14T11:26:12;11.40;99.90
29501;DHT22;16450;50.288;10.966;2023-03-14T11:29:20;11.40;99.90
29501;DHT22;16450;50.288;10.966;2023-03-14T11:32:33;11.50;99.90
29501;DHT22;16450;50.288;10.966;2023-03-14T11:35:45;11.60;99.90
29501;DHT22;16450;50.288;10.966;2023-03-14T11:38:56;11.70;99.90
29501;DHT22;16450;50.288;10.966;2023-03-14T11:41:59;11.80;99.90
29501;DHT22;16450;50.288;10.966;2023-03-14T11:45:02;11.90;99.90
29501;DHT22;16450;50.288;10.966;2023-03-14T11:48:20;11.90;99.90
29501;DHT22;16450;50.288;10.966;2023-03-14T11:51:28;11.90;99.90
29501;DHT22;16450;50.288;10.966;2023-03-14T11:54:44;12.00;99.90
29501;DHT22;16450;50.288;10.966;2023-03-14T11:57:50;12.00;99.90
29501;DHT22;16450;50.288;10.966;2023-03-14T12:00:54;12.00;99.90
29501;DHT22;16450;50.288;10.966;2023-03-14T12:11:30;12.00;99.90
29501;DHT22;16450;50.288;10.966;2023-03-14T12:14:35;12.10;99.90
29501;DHT22;16450;50.288;10.966;2023-03-14T12:17:41;12.20;99.90
29501;DHT22;16450;50.288;10.966;2023-03-14T12:20:53;12.40;99.90
29501;DHT22;16450;50.288;10.966;2023-03-14T12:23:57;12.50;99.90
29501;DHT22;16450;50.288;10.966;2023-03-14T12:27:01;12.60;99.90
29501;DHT22;16450;50.288;10.966;2023-03-14T12:30:32;12.60;99.90
29501;DHT22;16450;50.288;10.966;2023-03-14T12:33:33;12.70;99.90
29501;DHT22;16450;50.288;10.966;2023-03-14T12:37:12;12.60;99.90
29501;DHT22;16450;50.288;10.966;2023-03-14T12:40:21;12.50;99.90
29501;DHT22;16450;50.288;10.966;2023-03-14T12:43:30;12.50;99.90
29501;DHT22;16450;50.288;10.966;2023-03-14T12:46:32;12.40;99.90
29501;DHT22;16450;50.288;10.966;2023-03-14T12:49:37;12.40;99.90
29501;DHT22;16450;50.288;10.966;2023-03-14T12:56:05;12.20;99.90
29501;DHT22;16450;50.288;10.966;2023-03-14T12:59:26;12.10;99.90
29501;DHT22;16450;50.288;10.966;2023-03-14T13:02:42;12.00;99.90
29501;DHT22;16450;50.288;10.966;2023-03-14T13:05:52;12.00;99.90
29501;DHT22;16450;50.288;10.966;2023-03-14T13:08:54;12.00;99.90
29501;DHT22;16450;50.288;10.966;2023-03-14T13:12:25;11.90;99.90
29501;DHT22;16450;50.288;10.966;2023-03-14T13:15:35;11.80;99.90
29501;DHT22;16450;50.288;10.966;2023-03-14T13:18:42;11.70;99.90
29501;DHT22;16450;50.288;10.966;2023-03-14T13:21:44;11.70;99.90
29501;DHT22;16450;50.288;10.966;2023-03-14T13:24:46;11.50;99.90
29501;DHT22;16450;50.288;10.966;2023-03-14T13:27:51;11.50;99.90
29501;DHT22;16450;50.288;10.966;2023-03-14T13:31:02;11.40;99.90
29501;DHT22;16450;50.288;10.966;2023-03-14T13:34:09;11.30;99.90
29501;DHT22;16450;50.288;10.966;2023-03-14T13:37:30;11.20;99.90
29501;DHT22;16450;50.288;10.966;2023-03-14T13:40:33;11.00;99.90
29501;DHT22;16450;50.288;10.966;2023-03-14T13:43:39;11.00;99.90
29501;DHT22;16450;50.288;10.966;2023-03-14T13:46:41;10.90;99.90
29501;DHT22;16450;50.288;10.966;2023-03-14T13:49:43;10.80;99.90
29501;DHT22;16450;50.288;10.966;2023-03-14T13:52:45;10.70;99.90
29501;DHT22;16450;50.288;10.966;2023-03-14T13:55:48;10.60;99.90
29501;DHT22;16450;50.288;10.966;2023-03-14T13:58:50;10.60;99.90
29501;DHT22;16450;50.288;10.966;2023-03-14T14:01:53;10.50;99.90
29501;DHT22;16450;50.288;10.966;2023-03-14T14:04:56;10.50;99.90
29501;DHT22;16450;50.288;10.966;2023-03-14T14:07:58;10.40;99.90
29501;DHT22;16450;50.288;10.966;2023-03-14T14:11:02;10.30;99.90
29501;DHT22;16450;50.288;10.966;2023-03-14T14:14:51;10.30;99.90
29501;DHT22;16450;50.288;10.966;2023-03-14T14:17:39;10.20;99.90
29501;DHT22;16450;50.288;10.966;2023-03-14T14:20:45;10.10;99.90
29501;DHT22;16450;50.288;10.966;2023-03-14T14:23:48;10.10;99.90
29501;DHT22;16450;50.288;10.966;2023-03-14T14:26:53;10.00;99.90
29501;DHT22;16450;50.288;10.966;2023-03-14T14:30:05;10.00;99.90
29501;DHT22;16450;50.288;10.966;2023-03-14T14:33:20;9.90;99.90
29501;DHT22;16450;50.288;10.966;2023-03-14T14:39:32;9.90;99.90
29501;DHT22;16450;50.288;10.966;2023-03-14T14:42:39;9.90;99.90
29501;DHT22;16450;50.288;10.966;2023-03-14T14:45:42;9.80;99.90
29501;DHT22;16450;50.288;10.966;2023-03-14T14:48:44;9.70;99.90
29501;DHT22;16450;50.288;10.966;2023-03-14T14:51:51;9.60;99.90
29501;DHT22;16450;50.288;10.966;2023-03-14T14:54:57;9.50;99.90
29501;DHT22;16450;50.288;10.966;2023-03-14T14:58:18;9.40;99.90
29501;DHT22;16450;50.288;10.966;2023-03-14T15:01:24;9.30;99.90
29501;DHT22;16450;50.288;10.966;2023-03-14T15:04:31;9.20;99.90
29501;DHT22;16450;50.288;10.966;2023-03-14T15:07:33;9.20;99.90
29501;DHT22;16450;50.288;10.966;2023-03-14T15:10:35;9.10;99.90
29501;DHT22;16450;50.288;10.966;2023-03-14T15:13:37;9.00;99.90
29501;DHT22;16450;50.288;10.966;2023-03-14T15:16:40;9.00;99.90
29501;DHT22;16450;50.288;10.966;2023-03-14T15:19:42;8.90;99.90
29501;DHT22;16450;50.288;10.966;2023-03-14T15:22:44;8.80;99.90
29501;DHT22;16450;50.288;10.966;2023-03-14T15:25:47;8.80;99.90
29501;DHT22;16450;50.288;10.966;2023-03-14T15:28:56;8.80;99.90
29501;DHT22;16450;50.288;10.966;2023-03-14T15:31:58;8.80;99.90
29501;DHT22;16450;50.288;10.966;2023-03-14T15:35:00;8.80;99.90
29501;DHT22;16450;50.288;10.966;2023-03-14T15:38:02;8.80;99.90
29501;DHT22;16450;50.288;10.966;2023-03-14T15:41:04;8.80;99.90
29501;DHT22;16450;50.288;10.966;2023-03-14T15:44:06;8.80;99.90
29501;DHT22;16450;50.288;10.966;2023-03-14T15:47:10;8.80;99.90
29501;DHT22;16450;50.288;10.966;2023-03-14T15:50:12;8.70;99.90
29501;DHT22;16450;50.288;10.966;2023-03-14T15:53:14;8.70;99.90
29501;DHT22;16450;50.288;10.966;2023-03-14T15:56:18;8.70;99.90
29501;DHT22;16450;50.288;10.966;2023-03-14T15:59:20;8.60;99.90
29501;DHT22;16450;50.288;10.966;2023-03-14T16:02:22;8.30;99.70
29501;DHT22;16450;50.288;10.966;2023-03-14T16:05:24;8.10;99.70
29501;DHT22;16450;50.288;10.966;2023-03-14T16:08:26;7.80;99.90
29501;DHT22;16450;50.288;10.966;2023-03-14T16:11:30;7.60;99.90
29501;DHT22;16450;50.288;10.966;2023-03-14T16:14:32;7.40;99.90
29501;DHT22;16450;50.288;10.966;2023-03-14T16:17:34;7.20;99.90
29501;DHT22;16450;50.288;10.966;2023-03-14T16:20:36;7.20;99.90
29501;DHT22;16450;50.288;10.966;2023-03-14T16:23:48;7.00;99.90
29501;DHT22;16450;50.288;10.966;2023-03-14T16:26:50;7.00;99.90
29501;DHT22;16450;50.288;10.966;2023-03-14T16:29:52;6.90;99.90
29501;DHT22;16450;50.288;10.966;2023-03-14T16:32:54;6.90;99.90
29501;DHT22;16450;50.288;10.966;2023-03-14T16:36:00;6.90;99.90
29501;DHT22;16450;50.288;10.966;2023-03-14T16:39:06;6.90;99.90
29501;DHT22;16450;50.288;10.966;2023-03-14T16:42:08;6.80;99.90
29501;DHT22;16450;50.288;10.966;2023-03-14T16:45:10;6.70;99.90
29501;DHT22;16450;50.288;10.966;2023-03-14T16:48:12;6.70;99.90
29501;DHT22;16450;50.288;10.966;2023-03-14T16:51:14;6.60;99.90
29501;DHT22;16450;50.288;10.966;2023-03-14T16:54:17;6.50;99.90
29501;DHT22;16450;50.288;10.966;2023-03-14T16:57:18;6.40;99.90
29501;DHT22;16450;50.288;10.966;2023-03-14T17:00:21;6.30;99.90
29501;DHT22;16450;50.288;10.966;2023-03-14T17:03:23;6.30;99.90
29501;DHT22;16450;50.288;10.966;2023-03-14T17:06:26;6.20;99.90
29501;DHT22;16450;50.288;10.966;2023-03-14T17:09:29;6.10;99.90
29501;DHT22;16450;50.288;10.966;2023-03-14T17:12:32;6.10;99.90
29501;DHT22;16450;50.288;10.966;2023-03-14T17:15:34;6.00;99.90
29501;DHT22;16450;50.288;10.966;2023-03-14T17:18:36;5.90;99.90
29501;DHT22;16450;50.288;10.966;2023-03-14T17:21:38;5.90;99.90
29501;DHT22;16450;50.288;10.966;2023-03-14T17:24:40;5.80;99.90
29501;DHT22;16450;50.288;10.966;2023-03-14T17:27:42;5.70;99.90
29501;DHT22;16450;50.288;10.966;2023-03-14T17:30:47;5.60;99.90
29501;DHT22;16450;50.288;10.966;2023-03-14T17:33:50;5.50;99.90
29501;DHT22;16450;50.288;10.966;2023-03-14T17:36:55;5.50;99.90
29501;DHT22;16450;50.288;10.966;2023-03-14T17:39:57;5.40;99.90
29501;DHT22;16450;50.288;10.966;2023-03-14T17:43:02;5.30;99.90
29501;DHT22;16450;50.288;10.966;2023-03-14T17:46:06;5.20;99.90
29501;DHT22;16450;50.288;10.966;2023-03-14T17:49:12;5.20;99.90
29501;DHT22;16450;50.288;10.966;2023-03-14T17:52:14;5.10;99.90
29501;DHT22;16450;50.288;10.966;2023-03-14T17:55:16;5.00;99.90
29501;DHT22;16450;50.288;10.966;2023-03-14T17:58:18;5.00;99.90
29501;DHT22;16450;50.288;10.966;2023-03-14T18:01:20;5.00;99.90
29501;DHT22;16450;50.288;10.966;2023-03-14T18:04:22;4.90;99.90
29501;DHT22;16450;50.288;10.966;2023-03-14T18:07:24;4.90;99.90
29501;DHT22;16450;50.288;10.966;2023-03-14T18:10:26;4.90;99.90
29501;DHT22;16450;50.288;10.966;2023-03-14T18:13:28;4.90;99.90
29501;DHT22;16450;50.288;10.966;2023-03-14T18:16:30;4.90;99.90
29501;DHT22;16450;50.288;10.966;2023-03-14T18:19:32;4.90;99.90
29501;DHT22;16450;50.288;10.966;2023-03-14T18:22:34;5.00;99.90
29501;DHT22;16450;50.288;10.966;2023-03-14T18:25:36;5.00;99.90
29501;DHT22;16450;50.288;10.966;2023-03-14T18:28:38;5.00;99.90
29501;DHT22;16450;50.288;10.966;2023-03-14T18:31:41;5.00;99.90
29501;DHT22;16450;50.288;10.966;2023-03-14T18:34:43;5.00;99.90
29501;DHT22;16450;50.288;10.966;2023-03-14T18:37:45;5.00;99.90
29501;DHT22;16450;50.288;10.966;2023-03-14T18:40:47;5.00;99.90
29501;DHT22;16450;50.288;10.966;2023-03-14T18:43:49;5.00;99.90
29501;DHT22;16450;50.288;10.966;2023-03-14T18:46:52;5.10;99.90
29501;DHT22;16450;50.288;10.966;2023-03-14T18:49:54;5.10;99.90
29501;DHT22;16450;50.288;10.966;2023-03-14T18:52:57;5.10;99.90
29501;DHT22;16450;50.288;10.966;2023-03-14T18:56:01;5.10;99.90
29501;DHT22;16450;50.288;10.966;2023-03-14T18:59:03;5.20;99.90
29501;DHT22;16450;50.288;10.966;2023-03-14T19:02:05;5.20;99.90
29501;DHT22;16450;50.288;10.966;2023-03-14T19:05:07;5.20;99.90
29501;DHT22;16450;50.288;10.966;2023-03-14T19:08:09;5.20;99.90
29501;DHT22;16450;50.288;10.966;2023-03-14T19:11:15;5.10;99.90
29501;DHT22;16450;50.288;10.966;2023-03-14T19:14:17;5.10;99.90
29501;DHT22;16450;50.288;10.966;2023-03-14T19:17:21;5.10;99.90
29501;DHT22;16450;50.288;10.966;2023-03-14T19:20:23;5.10;99.90
29501;DHT22;16450;50.288;10.966;2023-03-14T19:23:25;5.00;99.90
29501;DHT22;16450;50.288;10.966;2023-03-14T19:26:27;5.00;99.90
29501;DHT22;16450;50.288;10.966;2023-03-14T19:29:33;5.00;99.90
29501;DHT22;16450;50.288;10.966;2023-03-14T19:32:42;4.90;99.90
29501;DHT22;16450;50.288;10.966;2023-03-14T19:35:45;4.90;99.90
29501;DHT22;16450;50.288;10.966;2023-03-14T19:38:47;4.90;99.90
29501;DHT22;16450;50.288;10.966;2023-03-14T19:41:49;4.80;99.90
29501;DHT22;16450;50.288;10.966;2023-03-14T19:44:58;4.80;99.90
29501;DHT22;16450;50.288;10.966;2023-03-14T19:48:05;4.80;99.90
29501;DHT22;16450;50.288;10.966;2023-03-14T19:51:07;4.80;99.90
29501;DHT22;16450;50.288;10.966;2023-03-14T19:54:10;4.70;99.90
29501;DHT22;16450;50.288;10.966;2023-03-14T19:57:12;4.80;99.90